Stations météo

réclame
Mon MeteoGroup
Goteborg/Landvetter, Suède (2527): Température de l'air & dewpoint: 12.09.2019 11:00:00 - 18.09.2019 11:00:00 (CEST)Goteborg/Landvetter, Suède (2527): Vitesse du vent: 12.09.2019 11:00:00 - 18.09.2019 11:00:00 (CEST)Goteborg/Landvetter, Suède (2527): Direction du vent: 12.09.2019 11:00:00 - 18.09.2019 11:00:00 (CEST)Goteborg/Landvetter, Suède (2527): visibility: 12.09.2019 11:00:00 - 18.09.2019 11:00:00 (CEST)
Date & Time tt [°C] td [°C] ff [km/h] ff [knt] dd vv [km]
18.09.2019 11:00:00 11,0 3,0 16 9 N 10
18.09.2019 10:00:00 9,0 3,0 16 9 NNW 10
18.09.2019 09:00:00 8,0 2,0 11 6 NW 10
18.09.2019 08:00:00 6,0 2,0 11 6 NNW 10
18.09.2019 07:00:00 5,0 1,0 8 4 NW 10
18.09.2019 06:00:00 5,0 2,0 9 5 NW 10
18.09.2019 05:00:00 5,0 1,0 9 5 NW 10
18.09.2019 04:00:00 6,0 1,0 9 5 WNW 10
18.09.2019 03:00:00 6,0 1,0 8 4 WNW 10
18.09.2019 02:00:00 6,0 1,0 9 5 NW 10
18.09.2019 01:00:00 6,0 1,0 9 5 WNW 10
18.09.2019 00:00:00 6,0 1,0 5 3 W 10
17.09.2019 23:00:00 6,0 1,0 9 5 WNW 10
17.09.2019 22:00:00 6,0 2,0 9 5 WNW 10
17.09.2019 21:00:00 6,0 3,0 8 4 NW 10
17.09.2019 20:00:00 7,0 4,0 13 7 NNW 10
17.09.2019 19:00:00 7,0 4,0 28 15 N 10
17.09.2019 18:00:00 9,0 3,0 22 12 NNW 10
17.09.2019 17:00:00 8,0 2,0 31 17 N 10
17.09.2019 16:00:00 12,0 2,0 28 15 NW 10
17.09.2019 15:00:00 12,0 2,0 24 13 NW 10
17.09.2019 14:00:00 11,0 1,0 29 16 WNW 10
17.09.2019 13:00:00 11,0 2,0 21 11 WNW 10
17.09.2019 12:00:00 11,0 2,0 15 8 W 10
17.09.2019 11:00:00 10,0 3,0 21 11 WNW 10
17.09.2019 10:00:00 10,0 3,0 26 14 WNW 10
17.09.2019 09:00:00 9,0 3,0 24 13 WNW 10
17.09.2019 08:00:00 8,0 3,0 18 10 W 10
17.09.2019 07:00:00 8,0 3,0 21 11 W 10
17.09.2019 06:00:00 8,0 5,0 21 11 W 10
17.09.2019 05:00:00 9,0 4,0 21 11 W 10
17.09.2019 04:00:00 9,0 5,0 16 9 W 10
17.09.2019 03:00:00 9,0 6,0 15 8 W 10
17.09.2019 02:00:00 9,0 7,0 13 7 W 10
17.09.2019 01:00:00 9,0 7,0 11 6 W 10
17.09.2019 00:00:00 10,0 7,0 9 5 W 10
16.09.2019 23:00:00 10,0 6,0 18 10 WSW 10
16.09.2019 22:00:00 11,0 7,0 18 10 W 10
16.09.2019 21:00:00 10,0 6,0 18 10 W 10
16.09.2019 20:00:00 11,0 6,0 21 11 W 10
16.09.2019 19:00:00 11,0 6,0 24 13 W 10
16.09.2019 18:00:00 12,0 5,0 26 14 W 10
16.09.2019 17:00:00 12,0 5,0 24 13 W 10
16.09.2019 16:00:00 12,0 4,0 29 16 WNW 10
16.09.2019 15:00:00 12,0 5,0 29 16 W 10
16.09.2019 14:00:00 12,0 5,0 31 17 W 10
16.09.2019 13:00:00 12,0 4,0 28 15 W 10
16.09.2019 12:00:00 12,0 4,0 24 13 WNW 10
16.09.2019 11:00:00 12,0 4,0 29 16 WNW 10
16.09.2019 10:00:00 12,0 5,0 28 15 W 10
16.09.2019 09:00:00 11,0 5,0 22 12 W 10
16.09.2019 08:00:00 10,0 5,0 21 11 W 10
16.09.2019 07:00:00 10,0 5,0 26 14 W 10
16.09.2019 06:00:00 10,0 5,0 22 12 W 10
16.09.2019 05:00:00 10,0 5,0 24 13 W 10
16.09.2019 04:00:00 11,0 5,0 26 14 W 10
16.09.2019 03:00:00 11,0 5,0 24 13 W 10
16.09.2019 02:00:00 11,0 5,0 29 16 W 10
16.09.2019 01:00:00 11,0 6,0 31 17 W 10
16.09.2019 00:00:00 11,0 7,0 35 19 W 10
15.09.2019 23:00:00 12,0 7,0 35 19 W 10
15.09.2019 22:00:00 12,0 7,0 37 20 W 10
15.09.2019 21:00:00 12,0 7,0 41 22 W 10
15.09.2019 20:00:00 12,0 7,0 39 21 W 10
15.09.2019 19:00:00 12,0 7,0 42 23 W 10
15.09.2019 18:00:00 12,0 7,0 41 22 W 10
15.09.2019 17:00:00 12,0 6,0 39 21 WSW 10
15.09.2019 16:00:00 12,0 6,0 41 22 W 10
15.09.2019 15:00:00 13,0 6,0 41 22 W 10
15.09.2019 14:00:00 13,0 6,0 41 22 W 10
15.09.2019 13:00:00 14,0 6,0 35 19 W 10
15.09.2019 12:00:00 13,0 8,0 37 20 W 10
15.09.2019 11:00:00 11,0 9,0 29 16 WSW 10
15.09.2019 10:00:00 12,0 9,0 22 12 WSW 10
15.09.2019 09:00:00 12,0 10,0 29 16 WSW 10
15.09.2019 08:00:00 12,0 11,0 34 18 WSW 10
15.09.2019 07:00:00 12,0 12,0 34 18 WSW 3,0
15.09.2019 06:00:00 12,0 11,0 41 22 SW 7
15.09.2019 05:00:00 12,0 11,0 39 21 SW 5
15.09.2019 04:00:00 12,0 10,0 41 22 SW 6
15.09.2019 03:00:00 12,0 10,0 31 17 SW 10
15.09.2019 02:00:00 11,0 10,0 31 17 SW 7
15.09.2019 01:00:00 11,0 9,0 35 19 SSW 4,3
15.09.2019 00:00:00 11,0 9,0 35 19 SSW 8
14.09.2019 23:00:00 12,0 8,0 37 20 SW 10
14.09.2019 22:00:00 12,0 8,0 29 16 SW 10
14.09.2019 21:00:00 13,0 8,0 24 13 SW 10
14.09.2019 20:00:00 13,0 8,0 24 13 SW 10
14.09.2019 19:00:00 13,0 8,0 26 14 SW 10
14.09.2019 18:00:00 14,0 8,0 22 12 WSW 10
14.09.2019 17:00:00 14,0 8,0 28 15 W 10
14.09.2019 16:00:00 14,0 7,0 26 14 WSW 10
14.09.2019 15:00:00 15,0 7,0 31 17 W 10
14.09.2019 14:00:00 14,0 9,0 28 15 W 10
14.09.2019 13:00:00 14,0 8,0 26 14 W 10
14.09.2019 12:00:00 14,0 6,0 26 14 W 10
14.09.2019 11:00:00 13,0 6,0 22 12 W 10
14.09.2019 10:00:00 13,0 7,0 24 13 W 10
14.09.2019 09:00:00 12,0 7,0 21 11 W 10
14.09.2019 08:00:00 11,0 6,0 15 8 W 10
14.09.2019 07:00:00 10,0 6,0 15 8 W 10
14.09.2019 06:00:00 10,0 6,0 15 8 W 10
14.09.2019 05:00:00 10,0 6,0 16 9 W 10
14.09.2019 04:00:00 10,0 6,0 15 8 W 10
14.09.2019 03:00:00 11,0 6,0 15 8 W 10
14.09.2019 02:00:00 11,0 6,0 16 9 W 10
14.09.2019 01:00:00 11,0 7,0 22 12 W 10
14.09.2019 00:00:00 12,0 7,0 18 10 W 10
13.09.2019 23:00:00 12,0 7,0 21 11 W 10
13.09.2019 22:00:00 12,0 8,0 24 13 W 10
13.09.2019 21:00:00 12,0 7,0 16 9 W 10
13.09.2019 20:00:00 12,0 7,0 24 13 W 10
13.09.2019 19:00:00 13,0 7,0 21 11 W 10
13.09.2019 18:00:00 14,0 6,0 22 12 W 10
13.09.2019 17:00:00 14,0 7,0 29 16 W 10
13.09.2019 16:00:00 14,0 7,0 24 13 W 10
13.09.2019 15:00:00 15,0 7,0 28 15 WNW 10
13.09.2019 14:00:00 14,0 6,0 28 15 W 10
13.09.2019 13:00:00 13,0 6,0 28 15 W 10
13.09.2019 12:00:00 14,0 7,0 28 15 WNW 10
13.09.2019 11:00:00 14,0 7,0 28 15 W 10
13.09.2019 10:00:00 13,0 7,0 26 14 WNW 10
13.09.2019 09:00:00 12,0 8,0 16 9 W 10
13.09.2019 08:00:00 12,0 9,0 13 7 W 10
13.09.2019 07:00:00 11,0 9,0 15 8 W 10
13.09.2019 06:00:00 11,0 9,0 15 8 WSW 10
13.09.2019 05:00:00 12,0 10,0 15 8 WSW 10
13.09.2019 04:00:00 12,0 11,0 18 10 WSW 10
13.09.2019 03:00:00 12,0 11,0 24 13 SW 10
13.09.2019 02:00:00 12,0 11,0 18 10 WSW 8
13.09.2019 01:00:00 12,0 10,0 21 11 WSW 10
13.09.2019 00:00:00 12,0 11,0 18 10 SW 10
12.09.2019 23:00:00 12,0 11,0 21 11 WSW 10
12.09.2019 22:00:00 12,0 11,0 16 9 SW 9
12.09.2019 21:00:00 13,0 10,0 18 10 WSW 10
12.09.2019 20:00:00 13,0 11,0 24 13 WSW 10
12.09.2019 19:00:00 14,0 10,0 22 12 SW 10
12.09.2019 18:00:00 15,0 10,0 28 15 WSW 10
12.09.2019 17:00:00 15,0 11,0 22 12 WSW 10
12.09.2019 16:00:00 15,0 11,0 28 15 SW 10
12.09.2019 15:00:00 15,0 12,0 28 15 SW 10
12.09.2019 14:00:00 15,0 10,0 26 14 SW 10
12.09.2019 13:00:00 16,0 11,0 26 14 WSW 10
12.09.2019 12:00:00 16,0 10,0 28 15 SW 10
12.09.2019 11:00:00 15,0 11,0 26 14 WSW 10

tt = Température de l'air
td = dewpoint
ff = Vitesse du vent
dd = Direction du vent
vv = visibility

stations d'obs. à proximité